Time;durP1;ratioP1;P1;durP2;ratioP2;P2;SDS_P1;SDS_P2;PMS_P1;PMS_P2;Temp;Humidity;BMP_temperature;BMP_pressure;BME280_temperature;BME280_humidity;BME280_pressure;Samples;Min_cycle;Max_cycle;Signal;HPM_P1;HPM_P2
2022/01/10 00:02:25;;;;;;;;;;;-3.20;99.90;;;;;;4961791;28;20093;-79
2022/01/10 00:04:51;;;;;;;66.72;33.85;;;-3.20;99.90;;;;;;4978769;28;20363;-79
2022/01/10 00:07:16;;;;;;;;;;;-3.30;99.90;;;;;;4978842;28;20054;-79
2022/01/10 00:09:42;;;;;;;70.35;31.95;;;-3.20;99.90;;;;;;4990313;28;19929;-80
2022/01/10 00:12:08;;;;;;;;;;;-3.30;99.90;;;;;;4994115;28;20078;-80
2022/01/10 00:14:34;;;;;;;66.70;31.35;;;-3.30;99.90;;;;;;4970080;28;19910;-79
2022/01/10 00:17:00;;;;;;;70.53;32.65;;;-3.30;99.90;;;;;;4978936;28;20023;-79
2022/01/10 00:19:25;;;;;;;;;;;-3.30;99.90;;;;;;4961323;28;20031;-79
2022/01/10 00:21:51;;;;;;;56.53;26.25;;;-3.40;99.90;;;;;;4959982;28;19910;-79
2022/01/10 00:24:16;;;;;;;57.58;24.98;;;-3.40;99.90;;;;;;4977944;28;20038;-78
2022/01/10 00:26:42;;;;;;;;;;;-3.40;99.90;;;;;;4959616;28;20833;-79
2022/01/10 00:29:08;;;;;;;54.83;27.27;;;-3.40;99.90;;;;;;4977268;28;20334;-79
2022/01/10 00:31:33;;;;;;;54.05;26.17;;;-3.50;99.90;;;;;;4960317;28;20391;-78
2022/01/10 00:33:59;;;;;;;;;;;-3.50;99.90;;;;;;4961182;28;20035;-78
2022/01/10 00:36:25;;;;;;;52.00;25.58;;;-3.50;99.90;;;;;;4960555;28;20386;-79
2022/01/10 00:38:52;;;;;;;51.83;24.30;;;-3.60;99.90;;;;;;4960071;28;20030;-79
2022/01/10 00:41:17;;;;;;;53.17;24.73;;;-3.60;99.90;;;;;;4978364;28;20444;-79
2022/01/10 00:43:46;;;;;;;52.42;25.02;;;-3.70;99.90;;;;;;4960983;28;20042;-79
2022/01/10 00:46:12;;;;;;;52.90;25.65;;;-3.80;99.90;;;;;;4960959;28;20074;-79
2022/01/10 00:48:39;;;;;;;59.35;26.05;;;-3.70;99.90;;;;;;4961367;28;20043;-79
2022/01/10 00:51:04;;;;;;;51.08;25.17;;;-3.70;99.90;;;;;;4978914;28;20029;-79
2022/01/10 00:53:30;;;;;;;46.42;21.50;;;-3.60;99.90;;;;;;4961408;28;20023;-79
2022/01/10 00:55:56;;;;;;;;;;;-3.60;99.90;;;;;;4965202;28;20049;-79
2022/01/10 00:58:21;;;;;;;41.83;19.42;;;-3.60;99.90;;;;;;4964906;28;20342;-79
2022/01/10 01:00:47;;;;;;;;;;;-3.60;99.90;;;;;;4965321;28;20027;-78
2022/01/10 01:03:13;;;;;;;44.70;21.30;;;-3.60;99.90;;;;;;4965788;28;19914;-79
2022/01/10 01:05:41;;;;;;;;;;;-3.60;99.90;;;;;;4983555;28;20031;-79
2022/01/10 01:08:09;;;;;;;38.03;17.08;;;-3.60;99.90;;;;;;4965073;28;19972;-79
2022/01/10 01:24:08;;;;;;;29.90;13.57;;;-3.40;99.90;;;;;;4981770;28;20401;-79
2022/01/10 01:26:38;;;;;;;26.48;11.57;;;-3.40;99.90;;;;;;4981337;28;20105;-79
2022/01/10 01:29:06;;;;;;;22.10;11.85;;;-3.50;99.90;;;;;;4964386;28;20149;-79
2022/01/10 01:31:32;;;;;;;23.95;12.13;;;-3.50;99.90;;;;;;4981048;28;20042;-79
2022/01/10 01:33:58;;;;;;;24.30;11.43;;;-3.50;99.90;;;;;;4981009;28;20030;-79
2022/01/10 01:36:25;;;;;;;28.55;12.18;;;-3.50;99.90;;;;;;4980697;28;20027;-79
2022/01/10 01:38:53;;;;;;;22.02;10.23;;;-3.40;99.90;;;;;;4963079;28;20065;-80
2022/01/10 01:41:36;;;;;;;25.23;10.82;;;-3.30;99.90;;;;;;4976157;28;20026;-79
2022/01/10 01:44:03;;;;;;;24.58;11.98;;;-3.20;99.90;;;;;;4986063;28;20086;-80
2022/01/10 01:46:29;;;;;;;20.55;10.35;;;-3.20;99.90;;;;;;4963442;28;20068;-79
2022/01/10 01:48:56;;;;;;;27.88;11.77;;;-3.20;99.90;;;;;;4980925;28;20117;-79
2022/01/10 01:51:22;;;;;;;25.80;12.40;;;-3.30;99.90;;;;;;4963279;28;20038;-80
2022/01/10 01:53:49;;;;;;;24.08;12.75;;;-3.30;99.90;;;;;;4981241;28;20029;-78
2022/01/10 01:56:15;;;;;;;29.58;13.27;;;-3.40;99.90;;;;;;4964718;28;20035;-79
2022/01/10 01:58:44;;;;;;;25.35;11.48;;;-3.40;99.90;;;;;;4980107;28;20023;-80
2022/01/10 02:01:10;;;;;;;26.02;11.00;;;-3.40;99.90;;;;;;4964010;28;20034;-80
2022/01/10 02:03:41;;;;;;;19.60;9.75;;;-3.30;99.90;;;;;;4962857;28;20035;-79
2022/01/10 02:06:08;;;;;;;16.30;8.38;;;-3.30;99.90;;;;;;4963600;28;20088;-80
2022/01/10 02:08:36;;;;;;;18.20;9.15;;;-3.30;99.90;;;;;;4963094;28;20034;-79
2022/01/10 02:11:05;;;;;;;20.90;10.45;;;-3.30;99.90;;;;;;4963472;28;20030;-79
2022/01/10 02:13:30;;;;;;;19.75;11.40;;;-3.20;99.90;;;;;;4964143;28;20038;-79
2022/01/10 02:16:02;;;;;;;;;;;-3.20;99.90;;;;;;4964367;28;20022;-80
2022/01/10 02:18:28;;;;;;;23.20;10.65;;;-3.30;99.90;;;;;;4981341;28;19910;-78
2022/01/10 02:20:57;;;;;;;29.88;13.88;;;-3.30;99.90;;;;;;4962864;28;20062;-79
2022/01/10 02:23:23;;;;;;;26.95;12.45;;;-3.40;99.90;;;;;;4963848;28;20035;-79
2022/01/10 02:25:49;;;;;;;33.47;15.05;;;-3.30;99.90;;;;;;4963751;28;20023;-80
2022/01/10 02:28:15;;;;;;;31.95;13.88;;;-3.40;99.90;;;;;;4964025;28;20551;-79
2022/01/10 02:30:41;;;;;;;;;;;-3.50;99.90;;;;;;4963456;28;20058;-79
2022/01/10 02:33:08;;;;;;;27.75;12.93;;;-3.50;99.90;;;;;;4980768;28;19986;-79
2022/01/10 02:36:00;;;;;;;32.55;14.57;;;-3.50;99.90;;;;;;4962961;28;20091;-79
2022/01/10 02:38:25;;;;;;;21.70;11.68;;;-3.60;99.90;;;;;;4980550;28;20411;-78
2022/01/10 02:40:52;;;;;;;22.65;11.30;;;-3.60;99.90;;;;;;4980710;28;20045;-79
2022/01/10 02:43:18;;;;;;;25.25;10.38;;;-3.60;99.90;;;;;;4980099;28;20066;-79
2022/01/10 02:45:45;;;;;;;22.00;11.07;;;-3.50;99.90;;;;;;4964109;28;20118;-78
2022/01/10 02:48:11;;;;;;;23.55;10.73;;;-3.50;99.90;;;;;;4964942;28;20039;-79
2022/01/10 02:50:36;;;;;;;;;;;-3.60;99.90;;;;;;4989927;28;20026;-78
2022/01/10 02:53:02;;;;;;;22.73;11.25;;;-3.60;99.90;;;;;;4972752;28;19906;-80
2022/01/10 02:55:27;;;;;;;;;;;-3.70;99.90;;;;;;4981942;28;20038;-79
2022/01/10 02:57:53;;;;;;;32.30;13.23;;;-3.70;99.90;;;;;;4963463;28;19913;-79
2022/01/10 03:00:22;;;;;;;24.83;12.88;;;-3.80;99.90;;;;;;4980817;28;20030;-79
2022/01/10 03:02:50;;;;;;;29.45;14.82;;;-3.90;99.90;;;;;;4964494;28;20053;-79
2022/01/10 03:05:17;;;;;;;30.23;14.95;;;-3.90;99.90;;;;;;4981657;28;20051;-80
2022/01/10 03:07:43;;;;;;;28.70;13.98;;;-3.90;99.90;;;;;;4982289;28;20030;-80
2022/01/10 03:10:09;;;;;;;33.55;16.55;;;-4.00;99.90;;;;;;4970321;28;20086;-80
2022/01/10 03:12:35;;;;;;;30.65;15.60;;;-4.00;99.90;;;;;;4991196;28;20030;-78
2022/01/10 03:15:07;;;;;;;32.42;15.85;;;-4.00;99.90;;;;;;4981601;28;20113;-80
2022/01/10 03:17:33;;;;;;;36.42;17.83;;;-4.00;99.90;;;;;;4980985;28;20042;-79
2022/01/10 03:19:59;;;;;;;33.92;17.02;;;-4.10;99.90;;;;;;4963704;28;20090;-80
2022/01/10 03:22:26;;;;;;;33.35;17.05;;;-4.10;99.90;;;;;;4964574;28;20050;-79
2022/01/10 03:24:53;;;;;;;34.83;17.42;;;-4.10;99.90;;;;;;4963781;28;20034;-79
2022/01/10 03:27:19;;;;;;;34.40;17.63;;;-4.10;99.90;;;;;;4981117;28;20022;-79
2022/01/10 03:29:45;;;;;;;36.92;17.80;;;-4.10;99.90;;;;;;4981465;28;20066;-79
2022/01/10 03:32:11;;;;;;;39.20;19.23;;;-4.10;99.90;;;;;;4981242;28;20051;-79
2022/01/10 03:34:38;;;;;;;35.10;18.10;;;-4.10;99.90;;;;;;4979385;28;20039;-79
2022/01/10 03:37:04;;;;;;;37.88;17.63;;;-4.00;99.90;;;;;;4979365;28;20023;-79
2022/01/10 03:39:30;;;;;;;39.30;19.77;;;-3.90;99.90;;;;;;4961538;28;20042;-79
2022/01/10 03:41:56;;;;;;;39.15;18.70;;;-3.80;99.90;;;;;;4960749;28;20031;-80
2022/01/10 03:44:21;;;;;;;;;;;-3.80;99.90;;;;;;4960950;28;20027;-79
2022/01/10 03:46:47;;;;;;;36.35;17.83;;;-3.70;99.90;;;;;;4977874;28;20383;-79
2022/01/10 03:49:13;;;;;;;;;;;-3.70;99.90;;;;;;4978885;28;20038;-80
2022/01/10 03:51:39;;;;;;;28.08;13.85;;;-3.70;99.90;;;;;;4977811;28;20580;-78
2022/01/10 03:54:04;;;;;;;;;;;-3.70;99.90;;;;;;4962559;28;20031;-79
2022/01/10 03:56:31;;;;;;;29.42;13.93;;;-3.70;99.90;;;;;;4978103;28;19953;-79
2022/01/10 03:58:58;;;;;;;29.40;14.38;;;-3.70;99.90;;;;;;4961954;28;20077;-79
2022/01/10 04:01:24;;;;;;;31.63;14.98;;;-3.70;99.90;;;;;;4962026;28;20031;-79
2022/01/10 04:03:52;;;;;;;38.65;18.95;;;-3.70;99.90;;;;;;4961049;28;20046;-79
2022/01/10 04:06:18;;;;;;;46.25;21.05;;;-3.70;99.90;;;;;;4960740;28;20027;-78
2022/01/10 04:08:43;;;;;;;49.15;22.25;;;-3.70;99.90;;;;;;4977711;28;20081;-79
2022/01/10 04:11:09;;;;;;;;;;;-3.80;99.90;;;;;;4979083;28;20094;-79
2022/01/10 04:13:35;;;;;;;43.67;20.00;;;-3.70;99.90;;;;;;4978560;28;19913;-78
2022/01/10 04:16:00;;;;;;;;;;;-3.80;99.90;;;;;;4961171;28;20038;-79
2022/01/10 04:18:26;;;;;;;34.33;15.35;;;-3.80;99.90;;;;;;4961533;28;19944;-79
2022/01/10 04:20:52;;;;;;;35.40;16.42;;;-3.80;99.90;;;;;;4961071;28;20058;-79
2022/01/10 04:23:18;;;;;;;42.63;17.70;;;-3.80;99.90;;;;;;4978445;28;20038;-78
2022/01/10 04:25:45;;;;;;;34.85;16.63;;;-3.80;99.90;;;;;;4961865;28;20019;-79
2022/01/10 04:28:10;;;;;;;39.17;17.48;;;-3.90;99.90;;;;;;4961093;28;20043;-79
2022/01/10 04:30:37;;;;;;;41.20;17.17;;;-3.90;99.90;;;;;;4961684;28;20048;-78
2022/01/10 04:33:04;;;;;;;44.95;18.38;;;-4.00;99.90;;;;;;4979120;28;20055;-79
2022/01/10 04:35:31;;;;;;;44.25;21.75;;;-4.00;99.90;;;;;;4962483;28;20408;-80
2022/01/10 04:37:57;;;;;;;68.45;26.10;;;-4.00;99.90;;;;;;4979027;28;20109;-79
2022/01/10 04:40:24;;;;;;;31.00;14.10;;;-3.90;99.90;;;;;;4983103;28;20043;-78
2022/01/10 04:42:50;;;;;;;30.55;14.35;;;-3.70;99.90;;;;;;4972695;28;20266;-80
2022/01/10 04:45:16;;;;;;;24.52;12.00;;;-3.60;99.90;;;;;;4979560;28;20031;-78
2022/01/10 04:47:42;;;;;;;23.88;11.95;;;-3.60;99.90;;;;;;4962252;28;20515;-79
2022/01/10 04:52:48;;;;;;;76.85;34.90;;;-3.70;99.90;;;;;;4979032;28;20651;-80
2022/01/10 04:55:14;;;;;;;91.15;41.92;;;-3.70;99.90;;;;;;4962899;28;20034;-79
2022/01/10 04:57:40;;;;;;;82.68;37.40;;;-3.80;99.90;;;;;;4963051;28;20034;-79
2022/01/10 05:00:09;;;;;;;77.93;35.72;;;-3.90;99.90;;;;;;4980602;28;20037;-79
2022/01/10 05:02:35;;;;;;;64.80;30.60;;;-4.00;99.90;;;;;;4962087;28;20035;-79
2022/01/10 05:05:01;;;;;;;27.85;13.65;;;-4.00;99.90;;;;;;4961806;28;20314;-79
2022/01/10 05:07:27;;;;;;;25.65;12.48;;;-4.00;99.90;;;;;;4962746;28;20041;-79
2022/01/10 05:09:52;;;;;;;22.58;11.38;;;-4.00;99.90;;;;;;4961828;28;20563;-79
2022/01/10 05:12:20;;;;;;;26.35;10.82;;;-4.10;99.90;;;;;;4961623;28;20154;-79
2022/01/10 05:14:46;;;;;;;33.50;15.02;;;-4.10;99.90;;;;;;4979637;28;20813;-79
2022/01/10 05:17:11;;;;;;;23.50;11.38;;;-4.20;99.90;;;;;;4961459;28;20102;-78
2022/01/10 05:19:37;;;;;;;26.73;13.57;;;-4.20;99.90;;;;;;4978968;28;20114;-79
2022/01/10 05:22:03;;;;;;;23.38;12.30;;;-4.20;99.90;;;;;;4979817;28;20041;-80
2022/01/10 05:24:29;;;;;;;26.40;12.75;;;-4.20;99.90;;;;;;4978366;28;20038;-79
2022/01/10 05:26:54;;;;;;;24.30;11.18;;;-4.30;99.90;;;;;;4978589;28;20065;-79
2022/01/10 05:29:20;;;;;;;;;;;-4.40;99.90;;;;;;4969816;28;20094;-79
2022/01/10 05:31:46;;;;;;;23.15;12.43;;;-4.50;99.90;;;;;;4970391;28;19933;-79
2022/01/10 05:34:11;;;;;;;28.85;13.40;;;-4.50;99.90;;;;;;4959179;28;20034;-78
2022/01/10 05:36:37;;;;;;;27.40;13.95;;;-4.60;99.90;;;;;;4973144;28;20027;-78
2022/01/10 05:39:03;;;;;;;36.53;19.88;;;-4.60;99.90;;;;;;4972945;28;20037;-79
2022/01/10 05:41:29;;;;;;;30.52;15.18;;;-4.60;99.90;;;;;;4958086;28;20030;-79
2022/01/10 05:43:57;;;;;;;25.17;13.60;;;-4.70;99.90;;;;;;4959270;28;20043;-79
2022/01/10 05:46:23;;;;;;;34.47;14.77;;;-4.70;99.90;;;;;;4959896;28;20058;-79
2022/01/10 05:48:52;;;;;;;33.00;17.13;;;-4.70;99.90;;;;;;4959579;28;20034;-79
2022/01/10 05:51:22;;;;;;;34.88;14.48;;;-4.80;99.90;;;;;;4959735;28;20478;-78
2022/01/10 05:53:48;;;;;;;36.10;15.73;;;-4.80;99.90;;;;;;4961266;28;20093;-79
2022/01/10 05:56:15;;;;;;;26.35;14.73;;;-4.90;99.90;;;;;;4977167;28;20029;-79
2022/01/10 05:58:41;;;;;;;32.03;15.95;;;-4.90;99.90;;;;;;4959570;28;20073;-78
2022/01/10 06:01:06;;;;;;;27.50;13.35;;;-5.00;99.90;;;;;;4976179;28;20407;-78
2022/01/10 06:03:32;;;;;;;25.13;13.38;;;-5.00;99.90;;;;;;4976986;28;20061;-79
2022/01/10 06:05:57;;;;;;;;;;;-5.00;99.90;;;;;;4977327;28;20026;-78
2022/01/10 06:08:23;;;;;;;28.25;14.38;;;-5.10;99.90;;;;;;4975654;28;19914;-77
2022/01/10 06:10:49;;;;;;;52.90;24.67;;;-5.10;99.90;;;;;;4980445;28;20022;-79
2022/01/10 06:13:14;;;;;;;66.40;26.35;;;-5.10;99.90;;;;;;4969450;28;20031;-79
2022/01/10 06:15:41;;;;;;;65.13;28.52;;;-5.10;99.90;;;;;;4976236;28;20444;-77
2022/01/10 06:18:07;;;;;;;58.42;25.35;;;-5.10;99.90;;;;;;4974566;28;20295;-79
2022/01/10 06:20:33;;;;;;;61.85;27.15;;;-5.10;99.90;;;;;;4958587;28;20027;-78
2022/01/10 06:22:59;;;;;;;54.53;25.00;;;-5.20;99.90;;;;;;4976101;28;20093;-79
2022/01/10 06:25:26;;;;;;;56.55;25.17;;;-5.10;99.90;;;;;;4975963;28;20026;-79
2022/01/10 06:27:52;;;;;;;64.55;30.08;;;-5.10;99.90;;;;;;4958699;28;20038;-78
2022/01/10 06:30:18;;;;;;;77.57;34.88;;;-5.10;99.90;;;;;;4976546;28;20030;-79
2022/01/10 06:32:43;;;;;;;85.32;36.60;;;-5.10;99.90;;;;;;4958382;28;20078;-78
2022/01/10 06:35:10;;;;;;;113.88;42.17;;;-5.00;99.90;;;;;;4958029;28;20026;-78
2022/01/10 06:37:35;;;;;;;102.68;40.28;;;-4.90;99.90;;;;;;4958916;28;20043;-79
2022/01/10 06:40:03;;;;;;;75.72;34.45;;;-4.90;99.90;;;;;;4959577;28;20034;-79
2022/01/10 06:42:29;;;;;;;96.40;46.17;;;-4.90;99.90;;;;;;4975840;28;20062;-78
2022/01/10 06:44:55;;;;;;;93.03;41.15;;;-4.80;99.90;;;;;;4976178;28;20058;-79
2022/01/10 06:47:20;;;;;;;142.77;49.40;;;-4.80;99.90;;;;;;4958719;28;20027;-79
2022/01/10 06:49:46;;;;;;;;;;;-4.80;99.90;;;;;;4976840;28;20015;-79
2022/01/10 06:52:12;;;;;;;121.10;46.28;;;-4.60;99.90;;;;;;4957437;28;20290;-79
2022/01/10 06:54:37;;;;;;;119.43;47.13;;;-4.60;99.90;;;;;;4958239;28;20053;-79
2022/01/10 06:57:03;;;;;;;;;;;-4.50;99.90;;;;;;4976539;28;20090;-79
2022/01/10 06:59:29;;;;;;;117.18;43.50;;;-4.50;99.90;;;;;;4957529;28;19906;-79
2022/01/10 07:01:58;;;;;;;;;;;-4.50;99.90;;;;;;4959038;28;20058;-79
2022/01/10 07:04:25;;;;;;;105.90;39.65;;;-4.40;99.90;;;;;;4975333;28;19914;-79
2022/01/10 07:06:52;;;;;;;112.15;43.08;;;-4.40;99.90;;;;;;4958290;28;20066;-80
2022/01/10 07:09:17;;;;;;;87.35;35.35;;;-4.40;99.90;;;;;;4958353;28;20050;-79
2022/01/10 07:11:43;;;;;;;149.55;60.55;;;-4.30;99.90;;;;;;4958160;28;20504;-79
2022/01/10 07:14:11;;;;;;;142.65;60.95;;;-4.20;99.90;;;;;;4958488;28;20563;-79
2022/01/10 07:16:36;;;;;;;104.35;45.33;;;-4.00;99.90;;;;;;4959216;28;20034;-79
2022/01/10 07:19:03;;;;;;;69.30;31.05;;;-3.70;99.90;;;;;;4958430;28;20034;-79
2022/01/10 07:21:29;;;;;;;58.55;27.02;;;-3.30;99.90;;;;;;4958870;28;20033;-79
2022/01/10 07:23:54;;;;;;;;;;;-2.90;99.90;;;;;;4959953;28;20034;-78
2022/01/10 07:26:20;;;;;;;92.13;35.33;;;-2.40;99.90;;;;;;4957042;28;20474;-79
2022/01/10 07:28:45;;;;;;;;;;;-2.10;99.90;;;;;;4959406;28;20492;-78
2022/01/10 07:31:11;;;;;;;85.93;32.33;;;-1.70;99.90;;;;;;4959439;28;19910;-79
2022/01/10 07:33:37;;;;;;;;;;;-1.40;99.90;;;;;;4959325;28;20059;-79
2022/01/10 07:36:04;;;;;;;94.05;31.65;;;-1.10;99.90;;;;;;4959942;28;19906;-79
2022/01/10 07:38:35;;;;;;;53.50;23.67;;;-0.90;99.90;;;;;;4976838;28;20575;-78
2022/01/10 07:41:02;;;;;;;36.20;16.67;;;-0.70;99.90;;;;;;4960403;28;20392;-79
2022/01/10 07:43:28;;;;;;;25.05;10.18;;;-0.40;99.90;;;;;;4984751;28;20073;-77
2022/01/10 07:45:54;;;;;;;;;;;-0.20;99.90;;;;;;4983897;28;20029;-79
2022/01/10 07:48:20;;;;;;;17.98;6.95;;;0.10;99.90;;;;;;4976758;28;20365;-79
2022/01/10 07:50:45;;;;;;;;;;;0.70;99.90;;;;;;4960939;28;20042;-80
2022/01/10 07:53:11;;;;;;;34.45;16.02;;;1.10;99.90;;;;;;4961516;28;19914;-79
2022/01/10 07:55:36;;;;;;;;;;;1.40;99.90;;;;;;4961636;28;20023;-79
2022/01/10 07:58:02;;;;;;;16.42;8.18;;;1.70;99.90;;;;;;4960877;28;19910;-79
2022/01/10 08:00:28;;;;;;;;;;;2.20;99.90;;;;;;4979173;28;20026;-79
2022/01/10 08:02:54;;;;;;;17.65;9.68;;;2.40;99.90;;;;;;4962224;28;19920;-79
2022/01/10 08:05:20;;;;;;;;;;;2.90;99.90;;;;;;4961712;28;20050;-79
2022/01/10 08:07:45;;;;;;;20.92;9.43;;;3.20;99.90;;;;;;4961042;28;19906;-80
2022/01/10 08:10:11;;;;;;;;;;;3.40;99.90;;;;;;4961823;28;20027;-80
2022/01/10 08:12:37;;;;;;;24.65;14.30;;;3.60;99.80;;;;;;4961221;28;19910;-80
2022/01/10 08:15:03;;;;;;;;;;;3.90;99.90;;;;;;4966027;28;20041;-81
2022/01/10 08:17:29;;;;;;;17.30;8.65;;;4.00;97.40;;;;;;4974206;28;19890;-79
2022/01/10 08:19:54;;;;;;;21.63;13.05;;;4.30;96.70;;;;;;4988668;28;20081;-79
2022/01/10 08:22:20;;;;;;;22.13;13.55;;;4.40;99.00;;;;;;4978295;28;20092;-80
2022/01/10 08:24:47;;;;;;;;;;;4.70;98.30;;;;;;4962340;28;20081;-79
2022/01/10 08:27:14;;;;;;;20.45;11.75;;;4.90;97.70;;;;;;4962874;28;19906;-78
2022/01/10 08:29:39;;;;;;;20.02;10.85;;;5.20;99.90;;;;;;4981485;28;20038;-79
2022/01/10 08:32:05;;;;;;;;;;;5.50;97.20;;;;;;4964611;28;20039;-79
2022/01/10 08:34:31;;;;;;;19.90;13.02;;;5.80;91.80;;;;;;4963292;28;20338;-79
2022/01/10 08:36:57;;;;;;;;;;;6.00;94.20;;;;;;4980734;28;20399;-78
2022/01/10 08:39:23;;;;;;;322.65;184.55;;;6.20;90.70;;;;;;4961904;28;19913;-79
2022/01/10 08:41:49;;;;;;;148.30;81.78;;;6.50;89.00;;;;;;4980242;28;20542;-79
2022/01/10 08:44:15;;;;;;;;;;;6.80;87.00;;;;;;4961006;28;20035;-80
2022/01/10 08:46:41;;;;;;;41.07;26.67;;;6.90;77.50;;;;;;4970433;28;19969;-81
2022/01/10 08:49:07;;;;;;;;;;;6.90;81.70;;;;;;4970602;28;20042;-83
2022/01/10 08:51:34;;;;;;;24.38;14.50;;;6.90;75.00;;;;;;4970340;28;19944;-83
2022/01/10 08:54:02;;;;;;;24.05;14.32;;;6.70;77.90;;;;;;4970649;28;20587;-86
2022/01/10 08:56:28;;;;;;;31.15;18.98;;;6.40;79.90;;;;;;4970315;28;20106;-79
2022/01/10 08:58:54;;;;;;;23.48;15.02;;;6.10;79.60;;;;;;4973444;28;20027;-79
2022/01/10 09:01:21;;;;;;;;;;;5.90;83.40;;;;;;4963514;28;20340;-79
2022/01/10 09:03:47;;;;;;;17.88;11.07;;;5.80;84.90;;;;;;4962842;28;19914;-80
2022/01/10 09:06:13;;;;;;;21.15;11.48;;;5.70;89.00;;;;;;4980948;28;20031;-79
2022/01/10 09:08:39;;;;;;;;;;;5.60;87.50;;;;;;4964725;28;20041;-80
2022/01/10 09:11:05;;;;;;;33.00;19.42;;;5.50;85.20;;;;;;4964046;28;19937;-79
2022/01/10 09:13:31;;;;;;;;;;;5.40;88.10;;;;;;4981275;28;20035;-79
2022/01/10 09:15:57;;;;;;;20.35;12.10;;;5.30;83.60;;;;;;4967282;28;19912;-81
2022/01/10 09:18:23;;;;;;;20.20;12.25;;;5.30;87.00;;;;;;4978528;28;20057;-79
2022/01/10 09:20:50;;;;;;;;;;;5.30;84.40;;;;;;4965745;28;20035;-80
2022/01/10 09:23:16;;;;;;;23.15;12.57;;;5.20;85.90;;;;;;4981326;28;20005;-80
2022/01/10 09:25:42;;;;;;;;;;;5.20;87.50;;;;;;4965052;28;20089;-79
2022/01/10 09:28:07;;;;;;;25.73;14.10;;;5.20;87.70;;;;;;4965789;28;19910;-79
2022/01/10 09:30:33;;;;;;;;;;;5.10;88.00;;;;;;4984890;28;20049;-80
2022/01/10 09:32:59;;;;;;;26.50;14.43;;;4.90;87.70;;;;;;4966214;28;19929;-80
2022/01/10 09:35:24;;;;;;;;;;;4.90;90.00;;;;;;4966056;28;20736;-79
2022/01/10 09:37:50;;;;;;;29.27;16.45;;;4.80;90.20;;;;;;4964410;28;19906;-78
2022/01/10 09:40:18;;;;;;;24.27;15.15;;;4.70;90.90;;;;;;4963861;28;20387;-79
2022/01/10 09:42:45;;;;;;;25.17;13.57;;;4.70;91.10;;;;;;4969356;29;20051;-83
2022/01/10 09:45:11;;;;;;;21.88;13.13;;;4.60;91.50;;;;;;4953682;29;20027;-80
2022/01/10 09:47:37;;;;;;;;;;;4.60;92.00;;;;;;4963941;28;20054;-78
2022/01/10 10:05:57;;;;;;;64.07;32.72;;;4.40;92.50;;;;;;4965779;28;20073;-83
2022/01/10 10:08:25;;;;;;;55.72;31.42;;;4.40;93.60;;;;;;4965008;28;20047;-81
2022/01/10 10:10:52;;;;;;;45.13;25.00;;;4.30;92.90;;;;;;4978591;28;20011;-79
2022/01/10 10:13:19;;;;;;;37.95;20.52;;;4.40;93.30;;;;;;4973106;28;20039;-79
2022/01/10 10:15:46;;;;;;;32.72;17.52;;;4.30;93.60;;;;;;4956166;29;20015;-79
2022/01/10 10:18:13;;;;;;;32.03;17.00;;;4.30;93.10;;;;;;4979620;28;20013;-82
2022/01/10 10:20:43;;;;;;;40.55;23.50;;;4.40;91.80;;;;;;4978334;28;20011;-80
2022/01/10 10:23:13;;;;;;;28.25;15.60;;;4.40;91.00;;;;;;4961071;29;20032;-80
2022/01/10 10:25:52;;;;;;;18.45;11.18;;;4.40;84.30;;;;;;4981418;28;20038;-81
2022/01/10 10:28:19;;;;;;;24.13;12.05;;;4.40;78.10;;;;;;4980414;28;20023;-80
2022/01/10 10:30:45;;;;;;;27.80;13.43;;;4.50;74.00;;;;;;4978543;28;20027;-80
2022/01/10 10:33:11;;;;;;;;;;;4.80;79.70;;;;;;4942186;28;20042;-77
2022/01/10 10:35:37;;;;;;;17.65;9.15;;;4.90;70.50;;;;;;4937819;29;19907;-80
2022/01/10 10:38:02;;;;;;;15.68;7.93;;;4.70;71.50;;;;;;4955937;28;20019;-83
2022/01/10 10:40:29;;;;;;;17.70;10.63;;;4.70;72.80;;;;;;4982074;28;20035;-81
2022/01/10 10:42:58;;;;;;;16.00;8.60;;;4.70;77.70;;;;;;4981661;28;20027;-80
2022/01/10 10:45:26;;;;;;;25.65;11.80;;;4.60;78.00;;;;;;4980825;28;20031;-80
2022/01/10 10:47:51;;;;;;;19.33;11.13;;;4.60;76.90;;;;;;4961020;29;20015;-81
2022/01/10 10:50:18;;;;;;;25.80;11.18;;;4.60;77.70;;;;;;4962475;28;20177;-79
2022/01/10 10:52:44;;;;;;;23.00;10.95;;;4.60;80.90;;;;;;4962598;28;20030;-81
2022/01/10 10:55:13;;;;;;;19.77;9.88;;;4.60;81.10;;;;;;4979440;29;20027;-81
2022/01/10 10:57:39;;;;;;;23.45;13.68;;;4.60;76.20;;;;;;4963616;28;20015;-80
2022/01/10 11:00:09;;;;;;;25.70;14.55;;;4.60;76.60;;;;;;4963664;28;20059;-80
2022/01/10 11:11:04;;;;;;;5.32;1.90;;;4.90;62.20;;;;;;5902559;23;20043;-79
2022/01/10 11:13:31;;;;;;;6.32;2.33;;;5.00;60.20;;;;;;4980835;28;20054;-81
2022/01/10 11:15:58;;;;;;;7.47;3.08;;;5.10;59.50;;;;;;4982427;28;20019;-81
2022/01/10 11:18:24;;;;;;;8.73;3.78;;;5.20;58.20;;;;;;4982256;28;20011;-81
2022/01/10 11:20:52;;;;;;;7.05;3.00;;;5.20;57.70;;;;;;4981542;28;20047;-79
2022/01/10 11:23:18;;;;;;;5.40;2.35;;;5.20;58.60;;;;;;4996033;28;20039;-79
2022/01/10 11:25:44;;;;;;;5.55;2.33;;;5.10;57.90;;;;;;4980010;28;20030;-80
2022/01/10 11:28:11;;;;;;;;;;;5.20;58.00;;;;;;4996276;28;20339;-81
2022/01/10 11:30:45;;;;;;;18.10;8.15;;;5.10;57.60;;;;;;4978729;28;19906;-81
2022/01/10 11:33:22;;;;;;;8.75;2.88;;;5.20;57.30;;;;;;4979058;28;20062;-79
2022/01/10 11:36:00;;;;;;;6.63;3.60;;;5.20;56.80;;;;;;4996375;28;20038;-80
2022/01/10 11:38:48;;;;;;;5.95;2.78;;;5.30;56.00;;;;;;4979326;28;20026;-80
2022/01/10 11:41:25;;;;;;;5.68;3.08;;;5.20;56.30;;;;;;4996596;28;20039;-80
2022/01/10 11:43:56;;;;;;;6.32;3.38;;;5.30;56.60;;;;;;4995955;28;20023;-80
2022/01/10 11:46:25;;;;;;;7.25;2.92;;;5.20;57.30;;;;;;4979718;28;20045;-79
2022/01/10 11:48:55;;;;;;;11.05;4.10;;;5.10;57.10;;;;;;4979869;28;20559;-81
2022/01/10 11:51:25;;;;;;;4.82;1.80;;;5.20;57.10;;;;;;4979410;28;20015;-81
2022/01/10 11:53:54;;;;;;;7.57;2.65;;;5.30;56.30;;;;;;4978562;28;20038;-81
2022/01/10 11:56:28;;;;;;;8.00;3.42;;;5.30;56.40;;;;;;4996298;28;20054;-80
2022/01/10 11:59:15;;;;;;;8.20;3.13;;;5.20;57.40;;;;;;4980215;28;20050;-80
2022/01/10 12:01:45;;;;;;;5.90;2.65;;;5.20;56.50;;;;;;4959443;29;20099;-80
2022/01/10 12:04:11;;;;;;;6.88;3.00;;;5.10;56.40;;;;;;4959573;29;20031;-81
2022/01/10 12:06:38;;;;;;;6.35;2.13;;;5.10;56.90;;;;;;4976281;28;20095;-80
2022/01/10 12:09:04;;;;;;;3.58;1.50;;;5.30;55.30;;;;;;4958501;29;20034;-80
2022/01/10 12:11:32;;;;;;;9.90;4.28;;;5.30;55.00;;;;;;4960042;29;20043;-80
2022/01/10 12:14:00;;;;;;;5.78;3.05;;;5.30;55.70;;;;;;4978093;28;20123;-80
2022/01/10 12:16:27;;;;;;;5.57;2.67;;;5.20;56.10;;;;;;4962170;28;20038;-80
2022/01/10 12:18:54;;;;;;;9.43;4.50;;;5.30;55.80;;;;;;4962158;28;20026;-80
2022/01/10 12:21:20;;;;;;;17.95;5.93;;;5.30;56.20;;;;;;4962421;28;20027;-80
2022/01/10 12:23:47;;;;;;;;;;;5.40;56.60;;;;;;4962470;29;20007;-81
2022/01/10 12:26:13;;;;;;;9.10;3.90;;;5.30;56.30;;;;;;4962166;29;20018;-81
2022/01/10 12:28:40;;;;;;;8.68;3.85;;;5.30;56.30;;;;;;4977871;28;20032;-80
2022/01/10 12:31:06;;;;;;;12.30;3.92;;;5.30;55.90;;;;;;4978842;29;20019;-80
2022/01/10 12:33:33;;;;;;;9.88;4.22;;;5.40;55.70;;;;;;4961670;28;20039;-81
2022/01/10 12:36:05;;;;;;;8.07;3.47;;;5.30;56.10;;;;;;4961672;29;20035;-81
2022/01/10 12:38:31;;;;;;;8.98;4.25;;;5.10;57.10;;;;;;4977943;29;20034;-81
2022/01/10 12:40:57;;;;;;;5.80;2.95;;;5.40;56.30;;;;;;4961651;28;20027;-80
2022/01/10 12:43:23;;;;;;;;;;;5.20;55.80;;;;;;4978259;29;20023;-81
2022/01/10 12:45:50;;;;;;;8.85;4.13;;;5.20;56.30;;;;;;4978302;29;19910;-81
2022/01/10 12:48:16;;;;;;;8.73;3.67;;;5.20;57.30;;;;;;4959660;29;20074;-77
2022/01/10 12:50:44;;;;;;;;;;;5.20;56.70;;;;;;4981074;28;20008;-83
2022/01/10 12:53:10;;;;;;;8.13;4.20;;;5.20;57.40;;;;;;4966886;28;19898;-84
2022/01/10 12:55:36;;;;;;;;;;;5.30;56.30;;;;;;4967506;28;20011;-81
2022/01/10 12:58:06;;;;;;;11.48;5.05;;;5.00;57.70;;;;;;4967603;28;19922;-82
2022/01/10 13:00:33;;;;;;;7.88;3.55;;;4.90;57.90;;;;;;4966985;28;20011;-83
2022/01/10 13:03:01;;;;;;;8.10;4.03;;;5.10;56.40;;;;;;4967046;28;20014;-83
2022/01/10 13:05:27;;;;;;;9.75;4.93;;;5.00;57.30;;;;;;4983473;28;20101;-83
2022/01/10 13:07:54;;;;;;;12.68;4.43;;;5.10;58.10;;;;;;4966933;28;20031;-82
2022/01/10 13:10:29;;;;;;;10.52;4.85;;;4.90;58.00;;;;;;4967372;28;20015;-82
2022/01/10 13:12:57;;;;;;;9.13;4.47;;;5.00;58.70;;;;;;4966839;28;20035;-83
2022/01/10 13:15:23;;;;;;;8.18;4.20;;;5.00;58.50;;;;;;4966974;28;20042;-83
2022/01/10 13:17:58;;;;;;;7.82;3.95;;;5.00;59.00;;;;;;4983677;28;20020;-82
2022/01/10 13:20:26;;;;;;;14.55;7.28;;;4.80;58.90;;;;;;4983519;28;20035;-83
2022/01/10 13:23:04;;;;;;;15.82;7.75;;;5.00;59.20;;;;;;4983465;28;20046;-82
2022/01/10 13:25:40;;;;;;;16.33;6.75;;;4.90;59.40;;;;;;4983233;28;20051;-83
2022/01/10 13:28:08;;;;;;;11.73;5.63;;;4.80;59.00;;;;;;4982965;28;20015;-84
2022/01/10 13:30:36;;;;;;;12.68;4.00;;;4.90;58.80;;;;;;4966694;28;20058;-83